Time;durP1;ratioP1;P1;durP2;ratioP2;P2;SDS_P1;SDS_P2;PMS_P1;PMS_P2;Temp;Humidity;BMP_temperature;BMP_pressure;BME280_temperature;BME280_humidity;BME280_pressure;Samples;Min_cycle;Max_cycle;Signal;HPM_P1;HPM_P2
2022/04/13 00:00:28;;;;;;;0.20;0.20;;;;;;;18.97;38.52;100789.16;5080095;28;20050;-30
2022/04/13 00:02:55;;;;;;;0.20;0.20;;;;;;;18.99;38.60;100787.75;5120472;28;20109;-30
2022/04/13 00:05:22;;;;;;;0.20;0.20;;;;;;;18.97;38.43;100787.22;5097275;28;20051;-30
2022/04/13 00:07:47;;;;;;;0.20;0.20;;;;;;;18.99;38.64;100790.53;5116437;28;20090;-30
2022/04/13 00:10:13;;;;;;;0.20;0.20;;;;;;;18.99;38.63;100787.75;5121308;28;20047;-30
2022/04/13 00:12:38;;;;;;;0.20;0.20;;;;;;;18.98;38.75;100793.56;5119804;27;20046;-29
2022/04/13 00:15:06;;;;;;;0.25;0.25;;;;;;;18.99;38.45;100789.69;5106501;28;20100;-31
2022/04/13 00:17:31;;;;;;;0.20;0.20;;;;;;;18.99;38.64;100790.53;5120218;28;20128;-29
2022/04/13 00:19:58;;;;;;;0.20;0.20;;;;;;;18.99;38.78;100786.94;5106560;28;20413;-29
2022/04/13 00:22:24;;;;;;;0.20;0.20;;;;;;;19.00;38.69;100792.19;5127930;28;20077;-29
2022/04/13 00:24:50;;;;;;;0.20;0.20;;;;;;;18.99;38.59;100793.28;5102259;28;20040;-29
2022/04/13 00:27:15;;;;;;;0.22;0.22;;;;;;;18.98;38.51;100794.41;5120110;27;20051;-30
2022/04/13 00:29:41;;;;;;;0.20;0.20;;;;;;;18.99;38.68;100786.94;5120160;28;20046;-30
2022/04/13 00:32:07;;;;;;;0.20;0.20;;;;;;;19.00;38.48;100794.13;5125394;28;20040;-30
2022/04/13 00:34:33;;;;;;;0.20;0.20;;;;;;;18.99;38.67;100797.97;5119928;28;20104;-30
2022/04/13 00:36:59;;;;;;;0.20;0.20;;;;;;;19.00;38.68;100799.66;5104263;28;20432;-29
2022/04/13 00:39:25;;;;;;;0.20;0.20;;;;;;;19.00;38.58;100799.66;5117575;28;20047;-30
2022/04/13 00:42:01;;;;;;;0.20;0.20;;;;;;;18.98;38.47;100797.16;5105781;28;20131;-30
2022/04/13 00:44:27;;;;;;;0.20;0.20;;;;;;;18.99;38.76;100797.97;5124001;28;20078;-29
2022/04/13 00:46:54;;;;;;;0.20;0.20;;;;;;;18.98;38.65;100796.34;5123908;28;20482;-30
2022/04/13 00:49:19;;;;;;;0.20;0.20;;;;;;;18.98;38.77;100797.16;5118812;28;20084;-29
2022/04/13 00:51:45;;;;;;;0.20;0.20;;;;;;;18.99;38.61;100807.06;5105012;28;20129;-29
2022/04/13 00:54:12;;;;;;;0.20;0.20;;;;;;;18.99;38.63;100809.84;5125362;28;20079;-29
2022/04/13 00:56:40;;;;;;;0.20;0.20;;;;;;;19.00;38.46;100803.22;5108493;28;20100;-29
2022/04/13 00:59:10;;;;;;;0.20;0.20;;;;;;;19.00;38.50;100805.19;5101786;28;20136;-29
2022/04/13 01:01:37;;;;;;;0.20;0.20;;;;;;;18.99;38.60;100800.72;5105341;28;20085;-32
2022/04/13 01:04:04;;;;;;;0.20;0.20;;;;;;;18.99;38.55;100793.28;5101513;28;20039;-30
2022/04/13 01:06:30;;;;;;;0.20;0.20;;;;;;;18.98;38.53;100791.63;5122426;28;20103;-30
2022/04/13 01:08:55;;;;;;;0.30;0.30;;;;;;;18.99;38.61;100796.03;5104576;28;20134;-30
2022/04/13 01:11:21;;;;;;;0.20;0.20;;;;;;;18.99;38.72;100801.56;5125864;28;20043;-32
2022/04/13 01:13:47;;;;;;;0.20;0.20;;;;;;;18.99;38.69;100809.84;5100586;28;20047;-29
2022/04/13 01:16:13;;;;;;;0.20;0.20;;;;;;;18.99;38.56;100807.06;5122771;28;20059;-30
2022/04/13 01:18:38;;;;;;;0.20;0.20;;;;;;;19.00;38.54;100818.97;5121892;28;20149;-30
2022/04/13 01:21:05;;;;;;;0.20;0.20;;;;;;;19.00;38.73;100824.50;5120638;28;20050;-29
2022/04/13 01:23:31;;;;;;;0.20;0.20;;;;;;;19.00;38.71;100814.28;5121666;28;20085;-29
2022/04/13 01:25:57;;;;;;;0.20;0.20;;;;;;;19.01;38.50;100826.13;5122067;27;20047;-30
2022/04/13 01:28:23;;;;;;;0.20;0.20;;;;;;;19.00;38.54;100832.78;5118542;28;20403;-31
2022/04/13 01:30:55;;;;;;;0.20;0.20;;;;;;;18.99;38.50;100823.63;5102271;28;20043;-30
2022/04/13 01:33:22;;;;;;;0.20;0.20;;;;;;;19.00;38.64;100830.00;5121522;28;20047;-31
2022/04/13 01:35:48;;;;;;;0.20;0.20;;;;;;;19.00;38.53;100838.28;5123041;28;20141;-30
2022/04/13 01:38:13;;;;;;;0.20;0.20;;;;;;;19.01;38.37;100831.66;5118235;28;20462;-30
2022/04/13 01:40:39;;;;;;;0.20;0.20;;;;;;;19.01;38.71;100837.19;5118692;28;20103;-31
2022/04/13 01:43:05;;;;;;;0.20;0.20;;;;;;;19.00;38.70;100838.28;5118401;28;20042;-29
2022/04/13 01:45:30;;;;;;;0.20;0.20;;;;;;;19.01;38.71;100839.94;5102104;28;20040;-30
2022/04/13 01:47:56;;;;;;;0.20;0.20;;;;;;;19.00;38.62;100841.06;5120162;28;20043;-29
2022/04/13 01:50:22;;;;;;;0.30;0.30;;;;;;;19.01;38.52;100839.94;5121074;28;20047;-29
2022/04/13 01:52:47;;;;;;;0.20;0.20;;;;;;;19.01;38.57;100845.47;5121661;28;20402;-29
2022/04/13 01:55:13;;;;;;;0.20;0.20;;;;;;;19.01;38.57;100850.97;5103744;28;20051;-29
2022/04/13 01:57:40;;;;;;;0.20;0.20;;;;;;;19.00;38.53;100850.16;5089440;28;20073;-29
2022/04/13 02:00:09;;;;;;;0.20;0.20;;;;;;;19.00;38.60;100849.34;5097125;28;20054;-30
2022/04/13 02:02:35;;;;;;;0.20;0.20;;;;;;;19.00;38.79;100849.34;5119569;28;20184;-29
2022/04/13 02:05:01;;;;;;;0.20;0.20;;;;;;;18.99;38.55;100856.75;5101852;28;20048;-30
2022/04/13 02:07:27;;;;;;;0.20;0.20;;;;;;;19.01;38.77;100849.03;5121533;28;20062;-29
2022/04/13 02:09:54;;;;;;;0.20;0.20;;;;;;;18.99;38.63;100851.22;5102504;28;20450;-30
2022/04/13 02:12:20;;;;;;;0.20;0.20;;;;;;;18.99;38.62;100856.75;5103696;28;20143;-29
2022/04/13 02:14:46;;;;;;;0.20;0.20;;;;;;;18.99;38.69;100859.50;5117930;28;20039;-30
2022/04/13 02:17:16;;;;;;;0.20;0.20;;;;;;;19.01;38.52;100860.06;5116949;28;20050;-29
2022/04/13 02:19:43;;;;;;;0.20;0.20;;;;;;;19.01;38.71;100868.34;5119896;28;20047;-30
2022/04/13 02:22:09;;;;;;;0.20;0.20;;;;;;;19.01;38.62;100860.06;5118061;28;20092;-30
2022/04/13 02:24:54;;;;;;;0.20;0.20;;;;;;;19.01;38.55;100867.53;5092751;27;20043;-29
2022/04/13 02:27:20;;;;;;;0.20;0.20;;;;;;;19.01;38.53;100868.34;5122057;28;20046;-30
2022/04/13 02:29:47;;;;;;;0.20;0.20;;;;;;;19.02;38.52;100880.22;5114686;28;20048;-30
2022/04/13 02:32:12;;;;;;;0.20;0.20;;;;;;;19.00;38.55;100875.00;5119385;28;20461;-30
2022/04/13 02:34:38;;;;;;;0.20;0.20;;;;;;;19.01;38.76;100876.63;5119046;27;20122;-30
2022/04/13 02:37:04;;;;;;;0.20;0.20;;;;;;;19.02;38.57;100882.97;5122816;28;20044;-29
2022/04/13 02:39:29;;;;;;;0.20;0.20;;;;;;;19.00;38.60;100876.94;5118098;28;20040;-30
2022/04/13 02:41:55;;;;;;;0.20;0.20;;;;;;;19.01;38.51;100886.84;5118764;28;20043;-31
2022/04/13 02:44:21;;;;;;;0.20;0.20;;;;;;;19.00;38.49;100891.56;5122223;28;20126;-30
2022/04/13 02:46:46;;;;;;;0.20;0.20;;;;;;;19.00;38.79;100891.56;5121897;28;20045;-30
2022/04/13 02:49:12;;;;;;;0.20;0.20;;;;;;;19.01;38.49;100878.56;5115781;28;20044;-30
2022/04/13 02:51:38;;;;;;;0.20;0.20;;;;;;;19.01;38.60;100890.44;5118183;28;20035;-31
2022/04/13 02:54:04;;;;;;;0.20;0.20;;;;;;;19.01;38.80;100887.69;5116063;28;20578;-31
2022/04/13 02:56:29;;;;;;;0.20;0.20;;;;;;;19.02;38.67;100894.03;5101379;28;20048;-31
2022/04/13 02:58:55;;;;;;;0.20;0.20;;;;;;;18.99;38.87;100898.16;5118702;28;20039;-29
2022/04/13 03:01:21;;;;;;;0.20;0.20;;;;;;;19.00;38.64;100894.31;5100650;28;20086;-30
2022/04/13 03:03:47;;;;;;;0.20;0.20;;;;;;;19.01;38.77;100897.91;5118715;28;20123;-30
2022/04/13 03:06:13;;;;;;;0.20;0.20;;;;;;;19.01;38.68;100892.38;5122027;28;20047;-32
2022/04/13 03:08:38;;;;;;;0.20;0.20;;;;;;;19.01;38.60;100900.66;5122055;28;20043;-31
2022/04/13 03:11:04;;;;;;;0.20;0.20;;;;;;;19.01;38.70;100907.00;5118909;28;20287;-30
2022/04/13 03:13:30;;;;;;;0.20;0.20;;;;;;;19.00;38.58;100910.88;5119643;28;20048;-28
2022/04/13 03:15:56;;;;;;;0.20;0.20;;;;;;;19.00;38.84;100916.38;5122811;28;20082;-31
2022/04/13 03:18:22;;;;;;;0.20;0.20;;;;;;;19.01;38.71;100914.44;5116922;28;20108;-31
2022/04/13 03:20:47;;;;;;;0.20;0.20;;;;;;;19.01;38.91;100914.44;5119504;28;20053;-30
2022/04/13 03:23:13;;;;;;;0.20;0.20;;;;;;;19.01;38.76;100917.22;5116330;27;20047;-29
2022/04/13 03:25:38;;;;;;;0.20;0.20;;;;;;;19.02;38.69;100919.69;5118828;28;20043;-31
2022/04/13 03:28:04;;;;;;;0.30;0.30;;;;;;;19.02;38.51;100916.94;5100325;28;20051;-31
2022/04/13 03:30:30;;;;;;;0.20;0.20;;;;;;;19.02;38.58;100913.34;5098842;28;20069;-34
2022/04/13 03:32:55;;;;;;;0.20;0.20;;;;;;;19.01;38.60;100919.97;5123055;28;20333;-29
2022/04/13 03:35:23;;;;;;;0.20;0.20;;;;;;;19.02;38.79;100927.13;5115840;28;20044;-30
2022/04/13 03:37:49;;;;;;;0.20;0.20;;;;;;;19.01;38.86;100923.56;5119924;28;20040;-30
2022/04/13 03:40:14;;;;;;;0.20;0.20;;;;;;;19.02;38.47;100921.63;5102801;28;20053;-30
2022/04/13 03:42:41;;;;;;;0.20;0.20;;;;;;;19.02;38.81;100927.13;5125782;28;20045;-29
2022/04/13 03:45:11;;;;;;;0.30;0.30;;;;;;;19.01;38.70;100926.31;5097673;28;20122;-29
2022/04/13 03:47:38;;;;;;;0.20;0.20;;;;;;;19.02;38.57;100927.13;5100811;28;20473;-31
2022/04/13 03:50:04;;;;;;;0.20;0.20;;;;;;;19.02;38.74;100929.91;5124270;28;20128;-30
2022/04/13 03:52:32;;;;;;;0.20;0.20;;;;;;;19.01;38.72;100929.06;5103850;28;20075;-30
2022/04/13 03:54:58;;;;;;;0.20;0.20;;;;;;;19.02;38.62;100929.91;5108653;28;20513;-30
2022/04/13 03:57:23;;;;;;;0.20;0.20;;;;;;;19.02;38.71;100941.75;5124544;28;20043;-30
2022/04/13 03:59:50;;;;;;;0.20;0.20;;;;;;;19.02;38.64;100940.94;5123232;28;20053;-29
2022/04/13 04:02:16;;;;;;;0.20;0.20;;;;;;;19.01;38.35;100942.06;5122551;28;20071;-29
2022/04/13 04:04:41;;;;;;;0.20;0.20;;;;;;;19.01;38.84;100937.34;5119400;28;20039;-29
2022/04/13 04:07:07;;;;;;;0.20;0.20;;;;;;;19.01;38.76;100940.13;5117913;28;20485;-30
2022/04/13 04:09:33;;;;;;;0.20;0.20;;;;;;;19.01;38.61;100937.34;5123321;28;20392;-30
2022/04/13 04:11:59;;;;;;;0.20;0.20;;;;;;;19.02;38.82;100941.75;5120511;28;20126;-30
2022/04/13 04:14:24;;;;;;;0.25;0.25;;;;;;;19.03;38.80;100945.34;5125566;28;20051;-29
2022/04/13 04:16:50;;;;;;;0.20;0.20;;;;;;;19.03;38.76;100948.94;5118325;28;20459;-30
2022/04/13 04:19:15;;;;;;;0.20;0.20;;;;;;;19.03;38.77;100948.94;5121700;28;20044;-31
2022/04/13 04:21:41;;;;;;;0.20;0.20;;;;;;;19.02;38.78;100952.81;5122472;28;20044;-30
2022/04/13 04:24:07;;;;;;;0.20;0.20;;;;;;;19.03;38.57;100950.88;5123437;27;20072;-30
2022/04/13 04:26:33;;;;;;;0.20;0.20;;;;;;;19.02;38.68;100950.03;5119400;28;20079;-30
2022/04/13 04:28:58;;;;;;;0.25;0.25;;;;;;;19.03;38.79;100948.94;5118908;28;20065;-29
2022/04/13 04:31:59;;;;;;;0.20;0.20;;;;;;;19.02;38.53;100954.75;5123470;28;20101;-29
2022/04/13 04:34:10;;;;;;;0.20;0.20;;;;;;;19.01;38.63;100951.16;5106960;28;20061;-31
2022/04/13 04:36:35;;;;;;;0.20;0.20;;;;;;;19.01;38.57;100951.16;5122441;28;20461;-29
2022/04/13 04:39:02;;;;;;;0.20;0.20;;;;;;;19.02;38.86;100958.31;5123847;28;21257;-29
2022/04/13 04:41:27;;;;;;;0.20;0.20;;;;;;;19.02;38.81;100960.25;5121255;28;20092;-30
2022/04/13 04:43:53;;;;;;;0.20;0.20;;;;;;;19.02;38.75;100960.25;5111862;28;20044;-30
2022/04/13 04:46:18;;;;;;;0.20;0.20;;;;;;;19.04;38.78;100958.03;5113337;28;20046;-31
2022/04/13 04:48:45;;;;;;;0.20;0.20;;;;;;;19.03;38.62;100957.22;5110636;28;20054;-30
2022/04/13 04:51:12;;;;;;;0.20;0.20;;;;;;;19.03;38.60;100957.22;5118982;28;20367;-29
2022/04/13 04:53:38;;;;;;;0.20;0.20;;;;;;;19.02;38.57;100961.09;5117684;28;20126;-30
2022/04/13 04:56:04;;;;;;;0.20;0.20;;;;;;;19.01;38.87;100959.44;5119998;28;20084;-30
2022/04/13 04:58:30;;;;;;;0.20;0.20;;;;;;;19.01;38.60;100964.97;5119851;27;20564;-29
2022/04/13 05:00:55;;;;;;;0.20;0.20;;;;;;;19.02;38.72;100965.78;5123375;28;20043;-29
2022/04/13 05:03:21;;;;;;;0.20;0.20;;;;;;;19.02;38.77;100965.78;5120076;28;20035;-30
2022/04/13 05:05:46;;;;;;;0.20;0.20;;;;;;;19.02;38.70;100971.31;5120329;28;20057;-30
2022/04/13 05:08:13;;;;;;;0.20;0.20;;;;;;;19.03;38.69;100978.47;5124995;28;20051;-31
2022/04/13 05:10:39;;;;;;;0.20;0.20;;;;;;;19.03;38.59;100986.75;5123169;28;20074;-30
2022/04/13 05:13:06;;;;;;;0.20;0.20;;;;;;;19.03;38.79;100989.50;5121022;28;20097;-29
2022/04/13 05:15:32;;;;;;;0.20;0.20;;;;;;;19.03;38.80;100989.50;5097558;28;20108;-29
2022/04/13 05:17:58;;;;;;;0.20;0.20;;;;;;;19.02;38.69;100980.41;5117176;28;20047;-32
2022/04/13 05:20:24;;;;;;;0.20;0.20;;;;;;;19.04;38.76;100994.78;5120451;28;20126;-30
2022/04/13 05:22:49;;;;;;;0.20;0.20;;;;;;;19.03;38.63;100997.78;5102244;28;20045;-33
2022/04/13 05:25:15;;;;;;;0.20;0.20;;;;;;;19.03;38.78;100998.59;5126047;28;20050;-29
2022/04/13 05:27:42;;;;;;;0.20;0.20;;;;;;;19.02;38.83;101002.47;5120045;28;20319;-29
2022/04/13 05:30:09;;;;;;;0.20;0.20;;;;;;;19.02;38.85;101007.19;5103830;28;20077;-31
2022/04/13 05:32:57;;;;;;;0.20;0.20;;;;;;;19.03;38.61;101011.59;5102886;28;20482;-29
2022/04/13 05:35:25;;;;;;;0.20;0.20;;;;;;;19.02;38.76;101013.53;5087647;28;20071;-29
2022/04/13 05:37:52;;;;;;;0.22;0.22;;;;;;;19.03;38.75;101019.88;5120335;28;20051;-29
2022/04/13 05:40:18;;;;;;;0.20;0.20;;;;;;;19.03;38.73;101028.16;5120637;28;20067;-30
2022/04/13 05:42:43;;;;;;;0.20;0.20;;;;;;;19.03;38.65;101030.91;5122172;28;20075;-30
2022/04/13 05:45:11;;;;;;;0.20;0.20;;;;;;;19.03;38.54;101036.44;5118527;28;20154;-30
2022/04/13 05:47:38;;;;;;;0.20;0.20;;;;;;;19.03;38.58;101045.53;5118010;28;20132;-29
2022/04/13 05:50:05;;;;;;;0.20;0.20;;;;;;;19.03;38.62;101045.53;5101341;28;20122;-31
2022/04/13 05:52:31;;;;;;;0.20;0.20;;;;;;;19.03;38.76;101047.47;5114951;28;20119;-30
2022/04/13 05:54:57;;;;;;;0.20;0.20;;;;;;;19.03;38.86;101045.53;5121341;28;20296;-29
2022/04/13 05:57:22;;;;;;;0.20;0.20;;;;;;;19.03;38.88;101053.81;5119597;28;20047;-29
2022/04/13 05:59:48;;;;;;;0.20;0.20;;;;;;;19.03;38.69;101059.34;5117037;28;20401;-29
2022/04/13 06:02:14;;;;;;;0.20;0.20;;;;;;;19.04;38.62;101054.63;5103412;28;20046;-30
2022/04/13 06:04:40;;;;;;;0.20;0.20;;;;;;;19.04;38.85;101058.25;5120594;28;20048;-30
2022/04/13 06:07:05;;;;;;;0.20;0.20;;;;;;;19.04;38.73;101057.41;5118113;28;20054;-30
2022/04/13 06:09:31;;;;;;;0.20;0.20;;;;;;;19.04;38.68;101057.41;5122144;28;20050;-29
2022/04/13 06:11:57;;;;;;;0.20;0.20;;;;;;;19.03;38.68;101061.28;5118061;28;20047;-30
2022/04/13 06:14:22;;;;;;;0.20;0.20;;;;;;;19.02;38.88;101063.22;5119747;28;20053;-30
2022/04/13 06:16:48;;;;;;;0.20;0.20;;;;;;;19.04;38.79;101065.69;5116399;28;20055;-29
2022/04/13 06:19:14;;;;;;;0.20;0.20;;;;;;;19.03;38.73;101066.78;5117763;28;20111;-30
2022/04/13 06:21:39;;;;;;;0.20;0.20;;;;;;;19.04;38.65;101074.81;5120898;28;20043;-29
2022/04/13 06:24:05;;;;;;;0.20;0.20;;;;;;;19.04;38.87;101073.97;5122007;27;20450;-29
2022/04/13 06:26:31;;;;;;;0.20;0.20;;;;;;;19.04;38.86;101080.34;5120566;28;20043;-31
2022/04/13 06:28:57;;;;;;;0.20;0.20;;;;;;;19.03;39.17;101084.19;5120521;28;20054;-30
2022/04/13 06:31:22;;;;;;;0.20;0.20;;;;;;;19.04;38.60;101085.00;5119279;28;20048;-30
2022/04/13 06:33:49;;;;;;;0.20;0.20;;;;;;;19.05;38.79;101086.69;5123648;28;20048;-30
2022/04/13 06:36:15;;;;;;;0.20;0.20;;;;;;;19.04;38.81;101093.28;5099910;28;20101;-30
2022/04/13 06:38:41;;;;;;;0.20;0.20;;;;;;;19.04;38.83;101087.75;5098654;28;20127;-30
2022/04/13 06:41:08;;;;;;;0.20;0.20;;;;;;;19.04;38.88;101085.00;5119902;28;20099;-29
2022/04/13 06:43:35;;;;;;;0.20;0.20;;;;;;;19.04;39.01;101085.00;5124688;28;20047;-30
2022/04/13 06:46:01;;;;;;;0.20;0.20;;;;;;;19.04;38.85;101090.53;5118674;28;20039;-30
2022/04/13 06:48:27;;;;;;;0.20;0.20;;;;;;;19.03;38.93;101086.13;5116026;28;20055;-30
2022/04/13 06:50:52;;;;;;;0.20;0.20;;;;;;;19.04;38.85;101091.38;5116904;28;20309;-29
2022/04/13 06:53:18;;;;;;;0.20;0.20;;;;;;;19.03;38.90;101092.47;5123433;28;20039;-29
2022/04/13 06:55:45;;;;;;;0.20;0.20;;;;;;;19.04;38.66;101096.03;5120399;28;20535;-30
2022/04/13 06:58:11;;;;;;;0.20;0.20;;;;;;;19.03;38.82;101097.16;5123178;28;20074;-30
2022/04/13 07:00:36;;;;;;;0.20;0.20;;;;;;;19.03;38.66;101097.97;5121941;28;20039;-29
2022/04/13 07:03:02;;;;;;;0.20;0.20;;;;;;;19.03;38.77;101100.75;5120986;28;20058;-30
2022/04/13 07:05:37;;;;;;;0.52;0.52;;;;;;;19.04;38.85;101099.66;5118423;28;20051;-31
2022/04/13 07:08:04;;;;;;;0.20;0.20;;;;;;;19.03;38.79;101097.16;5127445;28;20366;-29
2022/04/13 07:10:31;;;;;;;0.20;0.20;;;;;;;19.04;38.88;101099.66;5113281;28;20082;-31
2022/04/13 07:12:57;;;;;;;0.20;0.20;;;;;;;19.03;38.92;101106.25;5122245;28;20088;-29
2022/04/13 07:15:24;;;;;;;0.20;0.20;;;;;;;19.03;38.69;101100.75;5117365;28;20043;-29
2022/04/13 07:17:50;;;;;;;0.20;0.20;;;;;;;19.03;38.85;101103.50;5118783;28;20098;-33
2022/04/13 07:20:17;;;;;;;0.20;0.20;;;;;;;19.03;38.83;101111.78;5112067;28;20040;-30
2022/04/13 07:22:44;;;;;;;0.20;0.20;;;;;;;19.04;38.86;101107.94;5103124;28;20070;-29
2022/04/13 07:25:10;;;;;;;0.20;0.20;;;;;;;19.04;38.82;101105.19;5122378;28;20126;-29
2022/04/13 07:27:36;;;;;;;0.25;0.25;;;;;;;19.04;38.69;101109.84;5124139;28;20141;-31
2022/04/13 07:30:03;;;;;;;0.30;0.30;;;;;;;19.04;38.73;101115.38;5125116;28;20039;-30
2022/04/13 07:32:28;;;;;;;0.30;0.30;;;;;;;19.04;38.96;101120.88;5124913;28;20478;-31
2022/04/13 07:34:54;;;;;;;0.20;0.20;;;;;;;19.06;38.88;101129.75;5124579;28;20040;-30
2022/04/13 07:37:20;;;;;;;0.20;0.20;;;;;;;19.04;38.82;101131.94;5123253;28;20541;-30
2022/04/13 07:39:45;;;;;;;0.30;0.30;;;;;;;19.03;38.86;101139.38;5122801;28;20358;-31
2022/04/13 07:42:11;;;;;;;0.30;0.30;;;;;;;19.04;38.96;101131.94;5120716;28;20142;-31
2022/04/13 07:44:37;;;;;;;0.20;0.20;;;;;;;19.04;38.71;101132.78;5123743;28;20047;-29
2022/04/13 07:47:22;;;;;;;0.20;0.20;;;;;;;19.04;38.65;101134.69;5107100;28;20039;-30
2022/04/13 07:49:49;;;;;;;0.20;0.20;;;;;;;19.04;38.68;101137.44;5122375;28;20092;-30
2022/04/13 07:52:15;;;;;;;0.20;0.20;;;;;;;19.05;38.88;101144.66;5119824;28;20565;-30
2022/04/13 07:54:40;;;;;;;0.20;0.20;;;;;;;19.05;38.90;101147.41;5124432;28;20067;-30
2022/04/13 07:57:07;;;;;;;0.20;0.20;;;;;;;19.05;38.69;101152.94;5126546;28;20146;-29
2022/04/13 07:59:33;;;;;;;0.20;0.20;;;;;;;19.05;38.63;101161.22;5123102;28;20100;-32
2022/04/13 08:01:59;;;;;;;0.20;0.20;;;;;;;19.04;38.74;101156.78;5120136;28;20048;-31
2022/04/13 08:04:25;;;;;;;0.20;0.20;;;;;;;19.04;38.83;101160.38;5123389;28;20051;-33
2022/04/13 08:06:54;;;;;;;0.20;0.20;;;;;;;19.04;38.90;101167.81;5120930;28;20134;-29
2022/04/13 08:09:20;;;;;;;0.20;0.20;;;;;;;19.05;38.86;101172.25;5105144;28;20136;-33
2022/04/13 08:11:46;;;;;;;0.20;0.20;;;;;;;19.06;38.86;101173.91;5122314;28;20043;-30
2022/04/13 08:14:11;;;;;;;0.20;0.20;;;;;;;19.05;38.63;101183.28;5117675;28;20078;-31
2022/04/13 08:16:37;;;;;;;0.20;0.20;;;;;;;19.05;38.71;101186.88;5121833;28;20043;-30
2022/04/13 08:19:05;;;;;;;0.20;0.20;;;;;;;19.05;38.82;101181.34;5116039;28;20039;-29
2022/04/13 08:21:31;;;;;;;0.20;0.20;;;;;;;19.04;38.67;101179.72;5116281;27;20126;-30
2022/04/13 08:23:57;;;;;;;0.20;0.20;;;;;;;19.04;38.77;101176.94;5133383;27;20461;-30
2022/04/13 08:26:23;;;;;;;0.20;0.20;;;;;;;19.04;38.73;101182.47;5121437;28;20044;-30
2022/04/13 08:28:48;;;;;;;0.20;0.20;;;;;;;19.04;38.70;101188.00;5117274;28;20115;-30
2022/04/13 08:31:14;;;;;;;0.20;0.20;;;;;;;19.05;38.84;101188.81;5124774;28;20036;-30
2022/04/13 08:33:40;;;;;;;0.20;0.20;;;;;;;19.05;38.75;101191.56;5120447;28;20043;-30
2022/04/13 08:36:05;;;;;;;0.20;0.20;;;;;;;19.05;38.65;101192.41;5120275;28;20091;-29
2022/04/13 08:38:31;;;;;;;0.20;0.20;;;;;;;19.06;38.77;101190.47;5119046;28;20040;-29
2022/04/13 08:40:59;;;;;;;0.20;0.20;;;;;;;19.05;38.85;101191.56;5121925;28;20039;-30
2022/04/13 08:43:32;;;;;;;0.20;0.20;;;;;;;19.04;38.92;101192.66;5121860;28;20062;-30
2022/04/13 08:45:59;;;;;;;0.20;0.20;;;;;;;19.05;38.88;101189.63;5120285;28;20146;-30
2022/04/13 08:48:26;;;;;;;0.20;0.20;;;;;;;19.06;38.76;101193.22;5120225;28;20043;-29
2022/04/13 08:51:02;;;;;;;0.20;0.20;;;;;;;19.05;38.64;101197.91;5104135;28;20081;-30
2022/04/13 08:53:30;;;;;;;0.30;0.30;;;;;;;19.05;38.60;101194.34;5121850;28;20481;-30
2022/04/13 08:55:58;;;;;;;0.20;0.20;;;;;;;19.04;38.71;101193.50;5121391;28;20481;-29
2022/04/13 08:58:40;;;;;;;0.20;0.20;;;;;;;19.05;38.72;101186.06;5119726;28;20089;-30
2022/04/13 09:01:15;;;;;;;0.20;0.20;;;;;;;19.05;38.83;101184.13;5123856;28;20077;-30
2022/04/13 09:03:48;;;;;;;0.20;0.20;;;;;;;19.05;38.81;101191.56;5119494;28;20105;-29
2022/04/13 09:06:14;;;;;;;;;;;;;;;19.07;38.76;101185.75;5124993;28;20055;-29
2022/04/13 09:08:48;;;;;;;0.20;0.20;;;;;;;19.06;38.86;101193.22;5119853;28;19930;-30
2022/04/13 09:11:14;;;;;;;0.20;0.20;;;;;;;19.05;38.93;101188.81;5104710;28;20537;-31
2022/04/13 09:13:40;;;;;;;0.20;0.20;;;;;;;19.05;38.74;101186.06;5123508;28;20075;-30
2022/04/13 09:16:06;;;;;;;0.20;0.20;;;;;;;19.05;38.71;101197.09;5120678;28;20051;-29
2022/04/13 09:18:32;;;;;;;0.20;0.20;;;;;;;19.05;38.94;101197.91;5118108;28;20478;-30
2022/04/13 09:20:59;;;;;;;0.20;0.20;;;;;;;19.05;38.72;101199.84;5122411;27;20126;-29
2022/04/13 09:23:25;;;;;;;0.20;0.20;;;;;;;19.06;38.90;101204.25;5122708;28;20078;-30
2022/04/13 09:25:52;;;;;;;0.20;0.20;;;;;;;19.06;38.82;101209.78;5122605;28;20082;-29
2022/04/13 09:28:17;;;;;;;0.20;0.20;;;;;;;19.07;38.71;101211.44;5121921;28;20076;-29
2022/04/13 09:30:43;;;;;;;0.30;0.30;;;;;;;19.05;38.96;101203.44;5121798;28;20142;-29
2022/04/13 09:33:09;;;;;;;0.30;0.30;;;;;;;19.06;38.92;101212.53;5125779;28;20035;-30
2022/04/13 09:35:35;;;;;;;0.30;0.30;;;;;;;19.07;38.93;101207.84;5118281;28;20123;-28
2022/04/13 09:38:03;;;;;;;0.30;0.30;;;;;;;19.07;38.68;101211.44;5123653;28;20039;-30
2022/04/13 09:40:32;;;;;;;0.30;0.30;;;;;;;19.09;38.92;101216.69;5110996;28;20505;-31
2022/04/13 09:43:14;;;;;;;0.20;0.20;;;;;;;19.08;38.64;101217.78;5124798;28;20075;-29
2022/04/13 09:45:43;;;;;;;0.20;0.20;;;;;;;19.07;38.83;101210.59;5118008;28;20430;-30
2022/04/13 09:48:12;;;;;;;0.20;0.20;;;;;;;19.08;38.80;101217.78;5116826;28;20740;-29
2022/04/13 09:50:39;;;;;;;0.20;0.20;;;;;;;19.08;38.80;101213.09;5103566;28;20104;-32
2022/04/13 09:53:06;;;;;;;0.20;0.20;;;;;;;19.07;38.71;101214.19;5121077;28;20271;-29
2022/04/13 09:55:34;;;;;;;0.20;0.20;;;;;;;19.07;38.89;101216.97;5120509;28;20470;-31
2022/04/13 09:58:04;;;;;;;0.20;0.20;;;;;;;19.07;38.67;101216.13;5116316;28;20082;-30
2022/04/13 10:00:29;;;;;;;0.20;0.20;;;;;;;19.08;38.88;101215.03;5119513;28;20089;-30
2022/04/13 10:03:06;;;;;;;0.20;0.20;;;;;;;19.08;38.68;101212.25;5121547;28;20035;-29
2022/04/13 10:05:32;;;;;;;0.20;0.20;;;;;;;19.07;38.60;101216.13;5123370;28;20107;-30
2022/04/13 10:08:06;;;;;;;0.20;0.20;;;;;;;19.07;38.81;101216.13;5123881;28;20392;-30
2022/04/13 10:10:32;;;;;;;0.20;0.20;;;;;;;19.07;38.82;101222.47;5119789;28;20179;-29
2022/04/13 10:12:58;;;;;;;0.20;0.20;;;;;;;19.08;38.71;101220.53;5127259;28;20130;-31
2022/04/13 10:15:23;;;;;;;0.20;0.20;;;;;;;19.09;38.78;101217.53;5122808;28;20081;-29
2022/04/13 10:17:49;;;;;;;0.20;0.20;;;;;;;19.08;38.93;101217.78;5119563;28;20046;-29
2022/04/13 10:20:15;;;;;;;0.20;0.20;;;;;;;19.07;38.92;101214.19;5119022;27;20039;-30
2022/04/13 10:22:58;;;;;;;0.20;0.20;;;;;;;19.07;39.01;101216.97;5116830;28;20039;-31
2022/04/13 10:25:27;;;;;;;0.20;0.20;;;;;;;19.07;38.76;101219.72;5103871;28;20126;-30
2022/04/13 10:27:54;;;;;;;0.20;0.20;;;;;;;19.07;38.76;101214.19;5101756;28;20074;-31
2022/04/13 10:30:28;;;;;;;0.20;0.20;;;;;;;19.08;38.78;101215.03;5102633;28;20043;-32
2022/04/13 10:33:00;;;;;;;0.20;0.20;;;;;;;19.08;38.95;101221.38;5121338;28;20040;-29
2022/04/13 10:35:26;;;;;;;0.20;0.20;;;;;;;19.07;38.75;101216.97;5119930;28;20078;-30
2022/04/13 10:37:52;;;;;;;0.20;0.20;;;;;;;19.08;38.98;101223.31;5097946;28;20573;-29
2022/04/13 10:40:20;;;;;;;0.20;0.20;;;;;;;19.08;39.07;101231.59;5119402;28;20042;-30
2022/04/13 10:42:48;;;;;;;0.20;0.20;;;;;;;19.07;39.07;101219.72;5119309;28;20071;-30
2022/04/13 10:45:14;;;;;;;0.20;0.20;;;;;;;19.08;39.00;101224.13;5119552;28;20711;-30
2022/04/13 10:48:04;;;;;;;0.20;0.20;;;;;;;19.08;38.99;101226.88;5098739;28;20483;-30
2022/04/13 10:50:41;;;;;;;0.20;0.20;;;;;;;19.09;38.74;101223.06;5102664;28;20134;-27
2022/04/13 10:53:17;;;;;;;0.20;0.20;;;;;;;19.08;39.15;101234.34;5121267;28;20074;-30
2022/04/13 10:55:45;;;;;;;0.20;0.20;;;;;;;19.08;38.75;101226.06;5120987;27;20530;-30
2022/04/13 10:58:19;;;;;;;0.20;0.20;;;;;;;19.08;38.84;101231.59;5119622;28;20512;-31
2022/04/13 11:00:46;;;;;;;0.20;0.20;;;;;;;19.08;38.82;101234.34;5119315;28;20478;-30
2022/04/13 11:03:11;;;;;;;0.20;0.20;;;;;;;19.07;39.05;101239.03;5118295;28;20067;-31
2022/04/13 11:05:40;;;;;;;0.20;0.20;;;;;;;19.09;38.72;101241.56;5125787;28;20082;-29
2022/04/13 11:08:17;;;;;;;0.20;0.20;;;;;;;19.08;38.97;101235.16;5080690;28;20040;-31
2022/04/13 11:10:47;;;;;;;0.20;0.20;;;;;;;19.07;38.76;101241.81;5101404;28;20074;-29
2022/04/13 11:13:14;;;;;;;0.20;0.20;;;;;;;19.09;38.79;101247.06;5095871;28;20075;-29
2022/04/13 11:15:43;;;;;;;0.20;0.20;;;;;;;19.08;39.03;101246.22;5098341;28;20429;-31
2022/04/13 11:18:10;;;;;;;0.20;0.20;;;;;;;19.09;38.84;101241.56;5099390;28;20055;-29
2022/04/13 11:20:37;;;;;;;0.20;0.20;;;;;;;19.09;39.01;101236.03;5079796;28;20071;-29
2022/04/13 11:23:09;;;;;;;0.20;0.20;;;;;;;19.08;38.80;101239.88;5098183;28;20066;-29